Allamuchy, New Jersey
Current Conditions -  °F | °C
As of 9:53 AM on Friday 28 Nov 2014 (Local Time) from KFWN Reporting Station
Clear Clear  
Wind Chill: 24°   Ceiling: Unl
Heat Index: 31°   Visibility: 10mi
Dew Point: 21°   Wind: 7mph
Humidity: 67%   Direction: NA
Pressure: 30.17"   Gusts: 20mph
Location:  40.92°N, 74.81°W
Report Text: KFWN 281453Z AUTO VRB06G17KT 10SM CLR M01/M06 A3017 RMK AO2 SLP221 T10061061 51016
Loading
Personal Weather Stations






























Interactive Weather Map New forecast layout! Learn more

10-Day Weather Forecast

Advertisements
Track Severe Weather on mobile